Whitmore, California
Current Conditions -  °F | °C
As of 9:53 AM on Sunday 23 Nov 2014 (Local Time) from KRDD Reporting Station
Clear Clear  
Wind Chill: 52°   Ceiling: Unl
Heat Index: 52°   Visibility: 10mi
Dew Point: 40°   Wind: 8mph
Humidity: 63%   Direction: 360°N
Pressure: 30.37"   Gusts: NA
Location:  40.63°N, 121.92°W
Report Text: KRDD 231753Z 36007KT 10SM CLR 11/04 A3037 RMK AO2 SLP284 T01110044 10111 20044 53007
Loading
Personal Weather Stations






























Interactive Weather Map New forecast layout! Learn more

10-Day Weather Forecast

Advertisements
Track Severe Weather on mobile